Kasagimaru — JJ3905 — position and weather

sailwx.info

Track history (hours):
 
Tides and Currents Weather Stations Pressure Air Temp Water Temp Dewpoint Dewpoint Depression Visibility Wind Speed Wind Dir Waves Ship Positions

Kasagimaru

Last reported at 2014-Sep-22 10:33 UTC. Time now 2014-Sep-22 12:16 UTC.
Position N 34°33' E 135°25'.

Length 42 m; draft 3.5 m.

Type: Tug. MMSI: 431300268.

Date/timePositionNaut miles runAvg speedWind from/ knotsBaromVisibWave heightAir tempDewpointWater temp
2014-Sep-22 10:33N 34°33' E 135°25'3 2.8
2014-Sep-22 09:33N 34°31' E 135°23'1 0.2
2014-Sep-22 04:32N 34°32' E 135°23'2 2.1
2014-Sep-22 03:33N 34°33' E 135°25'1 1.3
2014-Sep-22 02:31N 34°33' E 135°27'0 0.0
2014-Sep-22 01:33N 34°33' E 135°27'0 0.0
2014-Sep-22 00:33N 34°33' E 135°27'0 0.0
2014-Sep-21 23:32N 34°33' E 135°27'0 0.0
2014-Sep-21 22:31N 34°33' E 135°27'0 0.0
2014-Sep-21 21:33N 34°33' E 135°27'0 0.0
2014-Sep-21 20:30N 34°33' E 135°27'0 0.0
2014-Sep-21 19:33N 34°33' E 135°27'0 0.0
2014-Sep-21 18:33N 34°33' E 135°27'0 0.0
2014-Sep-21 17:33N 34°33' E 135°27'0 0.0
2014-Sep-21 16:33N 34°33' E 135°27'0 0.0
2014-Sep-21 15:33N 34°33' E 135°27'0 0.0
2014-Sep-21 14:32N 34°33' E 135°27'0 0.0
2014-Sep-21 13:33N 34°33' E 135°27'0 0.0
2014-Sep-21 12:33N 34°33' E 135°27'0 0.0
2014-Sep-21 11:32N 34°33' E 135°27'0 0.0
2014-Sep-21 10:32N 34°33' E 135°27'0 0.0
2014-Sep-21 09:33N 34°33' E 135°27'0 0.0
2014-Sep-21 08:20N 34°33' E 135°27'0 0.0
2014-Sep-21 07:33N 34°33' E 135°27'0 0.0
2014-Sep-21 06:33N 34°33' E 135°27'0 0.0
2014-Sep-21 05:33N 34°33' E 135°27'0 0.0
2014-Sep-21 04:32N 34°33' E 135°27'1 1.5
2014-Sep-21 03:33N 34°33' E 135°25'3 2.7
2014-Sep-21 02:33N 34°33' E 135°22'3 0.9
2014-Sep-20 23:32N 34°31' E 135°23'6 6.6
2014-Sep-20 22:33N 34°26' E 135°19'0 0.4
2014-Sep-20 21:33N 34°26' E 135°19'8 0.7
2014-Sep-20 09:33N 34°23' E 135°10'1210.9
2014-Sep-20 08:29N 34°16' E 134°58'1314.3
2014-Sep-20 07:33N 34°29' E 135°03'7 1.5
2014-Sep-20 02:33N 34°36' E 135°03'1111.3
2014-Sep-20 01:33N 34°34' E 135°17'8 8.2
2014-Sep-20 00:33N 34°33' E 135°27'0 0.0
2014-Sep-19 23:33N 34°33' E 135°27'0 0.0
2014-Sep-19 22:33N 34°33' E 135°27'0 0.0
2014-Sep-19 21:32N 34°33' E 135°27'0 0.0
2014-Sep-19 20:33N 34°33' E 135°27'0 0.0
2014-Sep-19 19:33N 34°33' E 135°27'0 0.0
2014-Sep-19 18:33N 34°33' E 135°27'0 0.0
2014-Sep-19 17:33N 34°33' E 135°27'0 0.0
2014-Sep-19 16:26N 34°33' E 135°27'0 0.0
2014-Sep-19 15:33N 34°33' E 135°27'0 0.0
2014-Sep-19 14:33N 34°33' E 135°27'0 0.0
2014-Sep-19 13:33N 34°33' E 135°27'0 0.0
2014-Sep-19 12:32N 34°33' E 135°27'0 0.0
2014-Sep-19 10:32N 34°33' E 135°27'0 0.0
2014-Sep-19 09:33N 34°33' E 135°27'0 0.0
2014-Sep-19 08:20N 34°33' E 135°27'0 0.0
2014-Sep-19 07:13N 34°33' E 135°27'0 0.0
2014-Sep-19 06:33N 34°33' E 135°27'0 0.0
2014-Sep-19 05:15N 34°33' E 135°27'1 1.6
2014-Sep-19 04:32N 34°33' E 135°25'0 0.3
2014-Sep-19 03:33N 34°33' E 135°25'1 0.3
2014-Sep-19 01:21N 34°33' E 135°25'4 5.4
2014-Sep-19 00:33N 34°33' E 135°20'5 5.1
2014-Sep-18 23:33N 34°33' E 135°26'0 0.4
2014-Sep-18 22:32N 34°33' E 135°27'0 0.0
2014-Sep-18 21:33N 34°33' E 135°27'0 0.0
2014-Sep-18 20:24N 34°33' E 135°27'0 0.0
2014-Sep-18 14:18N 34°33' E 135°27'0 0.0
2014-Sep-18 13:22N 34°33' E 135°27'0 0.0
2014-Sep-18 11:30N 34°33' E 135°27'0 0.0
2014-Sep-18 10:31N 34°33' E 135°27'2 2.5
2014-Sep-18 09:33N 34°32' E 135°24'1 0.7
2014-Sep-18 08:33N 34°32' E 135°24'1 0.9
2014-Sep-18 07:13N 34°33' E 135°25'0 0.3
2014-Sep-18 06:32N 34°33' E 135°25'4 4.5
2014-Sep-18 05:33N 34°34' E 135°20'4 1.1
2014-Sep-18 01:33N 34°33' E 135°25'1 0.7
2014-Sep-18 00:33N 34°33' E 135°25'5 4.6
2014-Sep-17 23:32N 34°34' E 135°19'6 6.0
2014-Sep-17 22:31N 34°33' E 135°27'0 0.0
2014-Sep-17 21:33N 34°33' E 135°27'0 0.0
2014-Sep-17 20:33N 34°33' E 135°27'0 0.0
2014-Sep-17 19:33N 34°33' E 135°27'0 0.0
2014-Sep-17 18:33N 34°33' E 135°27'0 0.0
2014-Sep-17 17:33N 34°33' E 135°27'0 0.0
2014-Sep-17 16:33N 34°33' E 135°27'0 0.0
2014-Sep-17 15:31N 34°33' E 135°27'0 0.0
2014-Sep-17 14:29N 34°33' E 135°27'0 0.0
2014-Sep-17 13:32N 34°33' E 135°27'0 0.0
2014-Sep-17 12:33N 34°33' E 135°27'0 0.0
2014-Sep-17 11:33N 34°33' E 135°27'0 0.0
2014-Sep-17 10:10N 34°33' E 135°27'0 0.0
2014-Sep-17 07:15N 34°33' E 135°27'0 0.0
2014-Sep-17 05:23N 34°33' E 135°27'0 0.0
2014-Sep-17 04:29N 34°33' E 135°27'0 0.0
2014-Sep-17 03:33N 34°33' E 135°27'0 0.0
2014-Sep-17 02:33N 34°33' E 135°27'0 0.0
2014-Sep-17 01:33N 34°33' E 135°27'0 0.0
2014-Sep-17 00:33N 34°33' E 135°27'0 0.0
2014-Sep-16 23:33N 34°33' E 135°27'0 0.0
2014-Sep-16 22:33N 34°33' E 135°27'0 0.0
2014-Sep-16 21:33N 34°33' E 135°27'0 0.0
2014-Sep-16 20:33N 34°33' E 135°27'0 0.0
2014-Sep-16 19:33N 34°33' E 135°27'0 0.0
2014-Sep-16 18:33N 34°33' E 135°27'0 0.0
2014-Sep-16 17:33N 34°33' E 135°27'0 0.0
2014-Sep-16 16:33N 34°33' E 135°27'0 0.0
2014-Sep-16 15:33N 34°33' E 135°27'0 0.0
2014-Sep-16 14:33N 34°33' E 135°27'0 0.0
2014-Sep-16 13:33N 34°33' E 135°27'0 0.0
2014-Sep-16 12:33N 34°33' E 135°27'0 0.0
2014-Sep-16 11:33N 34°33' E 135°27'0 0.0
2014-Sep-16 10:31N 34°33' E 135°27'0 0.0
2014-Sep-16 09:29N 34°33' E 135°27'0 0.0
2014-Sep-16 08:33N 34°33' E 135°27'0 0.0
2014-Sep-16 07:33N 34°33' E 135°27'0 0.0
2014-Sep-16 06:33N 34°33' E 135°27'0 0.0
2014-Sep-16 05:33N 34°33' E 135°27'0 0.0
2014-Sep-16 04:33N 34°33' E 135°27'0 0.0
2014-Sep-16 03:33N 34°33' E 135°27'0 0.0
2014-Sep-16 02:33N 34°33' E 135°27'0 0.0
2014-Sep-16 01:31N 34°33' E 135°27'0 0.0
2014-Sep-16 00:32N 34°33' E 135°27'0 0.0
2014-Sep-15 23:32N 34°33' E 135°27'0 0.0
2014-Sep-15 22:33N 34°33' E 135°27'0 0.0
2014-Sep-15 21:33N 34°33' E 135°27'0 0.0
2014-Sep-15 20:33N 34°33' E 135°27'0 0.0
2014-Sep-15 19:33N 34°33' E 135°27'0 0.0
2014-Sep-15 18:33N 34°33' E 135°27'0 0.0
2014-Sep-15 17:34N 34°33' E 135°27'0 0.0
2014-Sep-15 16:34N 34°33' E 135°27'0 0.0
2014-Sep-15 15:34N 34°33' E 135°27'0 0.0
2014-Sep-15 14:34N 34°33' E 135°27'0 0.0
2014-Sep-15 13:33N 34°33' E 135°27'0 0.0
2014-Sep-15 12:33N 34°33' E 135°27'0 0.0
2014-Sep-15 11:34N 34°33' E 135°27'0 0.0
2014-Sep-15 10:33N 34°33' E 135°27'0 0.0
2014-Sep-15 09:34N 34°33' E 135°27'0 0.0
2014-Sep-15 08:33N 34°33' E 135°27'0 0.0
2014-Sep-15 07:33N 34°33' E 135°27'0 0.0
2014-Sep-15 06:34N 34°33' E 135°27'0 0.0
2014-Sep-15 05:33N 34°33' E 135°27'0 0.0
2014-Sep-15 04:34N 34°33' E 135°27'0 0.0
2014-Sep-15 03:33N 34°33' E 135°27'0 0.0
2014-Sep-15 02:29N 34°33' E 135°27'0 0.0
2014-Sep-15 01:12N 34°33' E 135°27'0 0.0
2014-Sep-15 00:32N 34°33' E 135°27'3 2.7
2014-Sep-14 23:33N 34°32' E 135°24'1 0.5
2014-Sep-14 22:34N 34°32' E 135°24'1 1.4
2014-Sep-14 21:34N 34°33' E 135°23'3 2.6
2014-Sep-14 20:33N 34°33' E 135°27'0 0.0
2014-Sep-14 19:33N 34°33' E 135°27'0 0.0
2014-Sep-14 08:32N 34°33' E 135°27'1 0.6
2014-Sep-14 07:34N 34°33' E 135°26'1 0.6
2014-Sep-14 06:32N 34°33' E 135°27'0 0.0
2014-Sep-14 05:31N 34°33' E 135°27'0 0.0
2014-Sep-14 04:34N 34°33' E 135°27'0 0.0
2014-Sep-14 03:33N 34°33' E 135°27'0 0.0
2014-Sep-14 02:33N 34°33' E 135°27'0 0.0
2014-Sep-14 01:33N 34°33' E 135°27'0 0.0
2014-Sep-13 13:28N 34°33' E 135°27'0 0.0
2014-Sep-13 12:33N 34°33' E 135°27'0 0.0
2014-Sep-13 11:30N 34°33' E 135°27'0 0.0
2014-Sep-13 09:26N 34°33' E 135°27'0 0.0
2014-Sep-13 08:33N 34°33' E 135°27'1 0.4
2014-Sep-13 05:25N 34°33' E 135°25'1 0.9
2014-Sep-13 04:33N 34°33' E 135°25'6 5.7
2014-Sep-13 03:34N 34°34' E 135°18'5 2.6
2014-Sep-13 01:32N 34°31' E 135°24'2 2.3
2014-Sep-13 00:29N 34°33' E 135°26'1 0.4
2014-Sep-12 23:08N 34°33' E 135°27'0 0.0
2014-Sep-12 22:33N 34°33' E 135°27'0 0.0
2014-Sep-12 21:32N 34°33' E 135°27'0 0.0
2014-Sep-12 20:33N 34°33' E 135°27'0 0.0
2014-Sep-12 19:33N 34°33' E 135°27'0 0.0
2014-Sep-12 18:33N 34°33' E 135°27'0 0.0
2014-Sep-12 17:34N 34°33' E 135°27'0 0.0
2014-Sep-12 16:34N 34°33' E 135°27'0 0.0
2014-Sep-12 15:34N 34°33' E 135°27'0 0.0
2014-Sep-12 13:31N 34°33' E 135°27'0 0.0
2014-Sep-12 12:32N 34°33' E 135°27'  
Track history (hours):
 
Tides and Currents Weather Stations Pressure Air Temp Water Temp Dewpoint Dewpoint Depression Visibility Wind Speed Wind Dir Waves Ship Positions

Kasagimaru

Last reported at 2014-Sep-22 10:33 UTC. Time now 2014-Sep-22 12:17 UTC.
Position N 34°33' E 135°25'.

Length 42 m; draft 3.5 m.

Type: Tug. MMSI: 431300268.

Date/timePositionNaut miles runAvg speedWind from/ knotsBaromVisibWave heightAir tempDewpointWater temp
2014-Sep-22 10:33N 34°33' E 135°25'3 2.8
2014-Sep-22 09:33N 34°31' E 135°23'1 0.2
2014-Sep-22 04:32N 34°32' E 135°23'2 2.1
2014-Sep-22 03:33N 34°33' E 135°25'1 1.3
2014-Sep-22 02:31N 34°33' E 135°27'0 0.0
2014-Sep-22 01:33N 34°33' E 135°27'0 0.0
2014-Sep-22 00:33N 34°33' E 135°27'0 0.0
2014-Sep-21 23:32N 34°33' E 135°27'0 0.0
2014-Sep-21 22:31N 34°33' E 135°27'0 0.0
2014-Sep-21 21:33N 34°33' E 135°27'0 0.0
2014-Sep-21 20:30N 34°33' E 135°27'0 0.0
2014-Sep-21 19:33N 34°33' E 135°27'0 0.0
2014-Sep-21 18:33N 34°33' E 135°27'0 0.0
2014-Sep-21 17:33N 34°33' E 135°27'0 0.0
2014-Sep-21 16:33N 34°33' E 135°27'0 0.0
2014-Sep-21 15:33N 34°33' E 135°27'0 0.0
2014-Sep-21 14:32N 34°33' E 135°27'0 0.0
2014-Sep-21 13:33N 34°33' E 135°27'0 0.0
2014-Sep-21 12:33N 34°33' E 135°27'0 0.0
2014-Sep-21 11:32N 34°33' E 135°27'0 0.0
2014-Sep-21 10:32N 34°33' E 135°27'0 0.0
2014-Sep-21 09:33N 34°33' E 135°27'0 0.0
2014-Sep-21 08:20N 34°33' E 135°27'0 0.0
2014-Sep-21 07:33N 34°33' E 135°27'0 0.0
2014-Sep-21 06:33N 34°33' E 135°27'0 0.0
2014-Sep-21 05:33N 34°33' E 135°27'0 0.0
2014-Sep-21 04:32N 34°33' E 135°27'1 1.5
2014-Sep-21 03:33N 34°33' E 135°25'3 2.7
2014-Sep-21 02:33N 34°33' E 135°22'3 0.9
2014-Sep-20 23:32N 34°31' E 135°23'6 6.6
2014-Sep-20 22:33N 34°26' E 135°19'0 0.4
2014-Sep-20 21:33N 34°26' E 135°19'8 0.7
2014-Sep-20 09:33N 34°23' E 135°10'1210.9
2014-Sep-20 08:29N 34°16' E 134°58'1314.3
2014-Sep-20 07:33N 34°29' E 135°03'7 1.5
2014-Sep-20 02:33N 34°36' E 135°03'1111.3
2014-Sep-20 01:33N 34°34' E 135°17'8 8.2
2014-Sep-20 00:33N 34°33' E 135°27'0 0.0
2014-Sep-19 23:33N 34°33' E 135°27'0 0.0
2014-Sep-19 22:33N 34°33' E 135°27'0 0.0
2014-Sep-19 21:32N 34°33' E 135°27'0 0.0
2014-Sep-19 20:33N 34°33' E 135°27'0 0.0
2014-Sep-19 19:33N 34°33' E 135°27'0 0.0
2014-Sep-19 18:33N 34°33' E 135°27'0 0.0
2014-Sep-19 17:33N 34°33' E 135°27'0 0.0
2014-Sep-19 16:26N 34°33' E 135°27'0 0.0
2014-Sep-19 15:33N 34°33' E 135°27'0 0.0
2014-Sep-19 14:33N 34°33' E 135°27'0 0.0
2014-Sep-19 13:33N 34°33' E 135°27'0 0.0
2014-Sep-19 12:32N 34°33' E 135°27'0 0.0
2014-Sep-19 10:32N 34°33' E 135°27'0 0.0
2014-Sep-19 09:33N 34°33' E 135°27'0 0.0
2014-Sep-19 08:20N 34°33' E 135°27'0 0.0
2014-Sep-19 07:13N 34°33' E 135°27'0 0.0
2014-Sep-19 06:33N 34°33' E 135°27'0 0.0
2014-Sep-19 05:15N 34°33' E 135°27'1 1.6
2014-Sep-19 04:32N 34°33' E 135°25'0 0.3
2014-Sep-19 03:33N 34°33' E 135°25'1 0.3
2014-Sep-19 01:21N 34°33' E 135°25'4 5.4
2014-Sep-19 00:33N 34°33' E 135°20'5 5.1
2014-Sep-18 23:33N 34°33' E 135°26'0 0.4
2014-Sep-18 22:32N 34°33' E 135°27'0 0.0
2014-Sep-18 21:33N 34°33' E 135°27'0 0.0
2014-Sep-18 20:24N 34°33' E 135°27'0 0.0
2014-Sep-18 14:18N 34°33' E 135°27'0 0.0
2014-Sep-18 13:22N 34°33' E 135°27'0 0.0
2014-Sep-18 11:30N 34°33' E 135°27'0 0.0
2014-Sep-18 10:31N 34°33' E 135°27'2 2.5
2014-Sep-18 09:33N 34°32' E 135°24'1 0.7
2014-Sep-18 08:33N 34°32' E 135°24'1 0.9
2014-Sep-18 07:13N 34°33' E 135°25'0 0.3
2014-Sep-18 06:32N 34°33' E 135°25'4 4.5
2014-Sep-18 05:33N 34°34' E 135°20'4 1.1
2014-Sep-18 01:33N 34°33' E 135°25'1 0.7
2014-Sep-18 00:33N 34°33' E 135°25'5 4.6
2014-Sep-17 23:32N 34°34' E 135°19'6 6.0
2014-Sep-17 22:31N 34°33' E 135°27'0 0.0
2014-Sep-17 21:33N 34°33' E 135°27'0 0.0
2014-Sep-17 20:33N 34°33' E 135°27'0 0.0
2014-Sep-17 19:33N 34°33' E 135°27'0 0.0
2014-Sep-17 18:33N 34°33' E 135°27'0 0.0
2014-Sep-17 17:33N 34°33' E 135°27'0 0.0
2014-Sep-17 16:33N 34°33' E 135°27'0 0.0
2014-Sep-17 15:31N 34°33' E 135°27'0 0.0
2014-Sep-17 14:29N 34°33' E 135°27'0 0.0
2014-Sep-17 13:32N 34°33' E 135°27'0 0.0
2014-Sep-17 12:33N 34°33' E 135°27'0 0.0
2014-Sep-17 11:33N 34°33' E 135°27'0 0.0
2014-Sep-17 10:10N 34°33' E 135°27'0 0.0
2014-Sep-17 07:15N 34°33' E 135°27'0 0.0
2014-Sep-17 05:23N 34°33' E 135°27'0 0.0
2014-Sep-17 04:29N 34°33' E 135°27'0 0.0
2014-Sep-17 03:33N 34°33' E 135°27'0 0.0
2014-Sep-17 02:33N 34°33' E 135°27'0 0.0
2014-Sep-17 01:33N 34°33' E 135°27'0 0.0
2014-Sep-17 00:33N 34°33' E 135°27'0 0.0
2014-Sep-16 23:33N 34°33' E 135°27'0 0.0
2014-Sep-16 22:33N 34°33' E 135°27'0 0.0
2014-Sep-16 21:33N 34°33' E 135°27'0 0.0
2014-Sep-16 20:33N 34°33' E 135°27'0 0.0
2014-Sep-16 19:33N 34°33' E 135°27'0 0.0
2014-Sep-16 18:33N 34°33' E 135°27'0 0.0
2014-Sep-16 17:33N 34°33' E 135°27'0 0.0
2014-Sep-16 16:33N 34°33' E 135°27'0 0.0
2014-Sep-16 15:33N 34°33' E 135°27'0 0.0
2014-Sep-16 14:33N 34°33' E 135°27'0 0.0
2014-Sep-16 13:33N 34°33' E 135°27'0 0.0
2014-Sep-16 12:33N 34°33' E 135°27'0 0.0
2014-Sep-16 11:33N 34°33' E 135°27'0 0.0
2014-Sep-16 10:31N 34°33' E 135°27'0 0.0
2014-Sep-16 09:29N 34°33' E 135°27'0 0.0
2014-Sep-16 08:33N 34°33' E 135°27'0 0.0
2014-Sep-16 07:33N 34°33' E 135°27'0 0.0
2014-Sep-16 06:33N 34°33' E 135°27'0 0.0
2014-Sep-16 05:33N 34°33' E 135°27'0 0.0
2014-Sep-16 04:33N 34°33' E 135°27'0 0.0
2014-Sep-16 03:33N 34°33' E 135°27'0 0.0
2014-Sep-16 02:33N 34°33' E 135°27'0 0.0
2014-Sep-16 01:31N 34°33' E 135°27'0 0.0
2014-Sep-16 00:32N 34°33' E 135°27'0 0.0
2014-Sep-15 23:32N 34°33' E 135°27'0 0.0
2014-Sep-15 22:33N 34°33' E 135°27'0 0.0
2014-Sep-15 21:33N 34°33' E 135°27'0 0.0
2014-Sep-15 20:33N 34°33' E 135°27'0 0.0
2014-Sep-15 19:33N 34°33' E 135°27'0 0.0
2014-Sep-15 18:33N 34°33' E 135°27'0 0.0
2014-Sep-15 17:34N 34°33' E 135°27'0 0.0
2014-Sep-15 16:34N 34°33' E 135°27'0 0.0
2014-Sep-15 15:34N 34°33' E 135°27'0 0.0
2014-Sep-15 14:34N 34°33' E 135°27'0 0.0
2014-Sep-15 13:33N 34°33' E 135°27'0 0.0
2014-Sep-15 12:33N 34°33' E 135°27'0 0.0
2014-Sep-15 11:34N 34°33' E 135°27'0 0.0
2014-Sep-15 10:33N 34°33' E 135°27'0 0.0
2014-Sep-15 09:34N 34°33' E 135°27'0 0.0
2014-Sep-15 08:33N 34°33' E 135°27'0 0.0
2014-Sep-15 07:33N 34°33' E 135°27'0 0.0
2014-Sep-15 06:34N 34°33' E 135°27'0 0.0
2014-Sep-15 05:33N 34°33' E 135°27'0 0.0
2014-Sep-15 04:34N 34°33' E 135°27'0 0.0
2014-Sep-15 03:33N 34°33' E 135°27'0 0.0
2014-Sep-15 02:29N 34°33' E 135°27'0 0.0
2014-Sep-15 01:12N 34°33' E 135°27'0 0.0
2014-Sep-15 00:32N 34°33' E 135°27'3 2.7
2014-Sep-14 23:33N 34°32' E 135°24'1 0.5
2014-Sep-14 22:34N 34°32' E 135°24'1 1.4
2014-Sep-14 21:34N 34°33' E 135°23'3 2.6
2014-Sep-14 20:33N 34°33' E 135°27'0 0.0
2014-Sep-14 19:33N 34°33' E 135°27'0 0.0
2014-Sep-14 08:32N 34°33' E 135°27'1 0.6
2014-Sep-14 07:34N 34°33' E 135°26'1 0.6
2014-Sep-14 06:32N 34°33' E 135°27'0 0.0
2014-Sep-14 05:31N 34°33' E 135°27'0 0.0
2014-Sep-14 04:34N 34°33' E 135°27'0 0.0
2014-Sep-14 03:33N 34°33' E 135°27'0 0.0
2014-Sep-14 02:33N 34°33' E 135°27'0 0.0
2014-Sep-14 01:33N 34°33' E 135°27'0 0.0
2014-Sep-13 13:28N 34°33' E 135°27'0 0.0
2014-Sep-13 12:33N 34°33' E 135°27'0 0.0
2014-Sep-13 11:30N 34°33' E 135°27'0 0.0
2014-Sep-13 09:26N 34°33' E 135°27'0 0.0
2014-Sep-13 08:33N 34°33' E 135°27'1 0.4
2014-Sep-13 05:25N 34°33' E 135°25'1 0.9
2014-Sep-13 04:33N 34°33' E 135°25'6 5.7
2014-Sep-13 03:34N 34°34' E 135°18'5 2.6
2014-Sep-13 01:32N 34°31' E 135°24'2 2.3
2014-Sep-13 00:29N 34°33' E 135°26'1 0.4
2014-Sep-12 23:08N 34°33' E 135°27'0 0.0
2014-Sep-12 22:33N 34°33' E 135°27'0 0.0
2014-Sep-12 21:32N 34°33' E 135°27'0 0.0
2014-Sep-12 20:33N 34°33' E 135°27'0 0.0
2014-Sep-12 19:33N 34°33' E 135°27'0 0.0
2014-Sep-12 18:33N 34°33' E 135°27'0 0.0
2014-Sep-12 17:34N 34°33' E 135°27'0 0.0
2014-Sep-12 16:34N 34°33' E 135°27'0 0.0
2014-Sep-12 15:34N 34°33' E 135°27'0 0.0
2014-Sep-12 13:31N 34°33' E 135°27'0 0.0
2014-Sep-12 12:32N 34°33' E 135°27'  

Dump ship's entire track history